Time;durP1;ratioP1;P1;durP2;ratioP2;P2;SDS_P1;SDS_P2;PMS_P1;PMS_P2;Temp;Humidity;BMP_temperature;BMP_pressure;BME280_temperature;BME280_humidity;BME280_pressure;Samples;Min_cycle;Max_cycle;Signal;HPM_P1;HPM_P2
2023/03/19 00:00:10;;;;;;;10.68;7.45;;;;;;;14.84;73.54;101097.28;5099644;28;20441;-80
2023/03/19 00:02:36;;;;;;;11.50;7.93;;;;;;;14.91;73.29;101103.41;5103021;27;20047;-79
2023/03/19 00:05:11;;;;;;;11.38;7.60;;;;;;;14.86;73.35;101111.28;5099671;27;20449;-80
2023/03/19 00:07:42;;;;;;;10.68;7.90;;;;;;;15.01;73.21;101110.38;5103363;27;20065;-81
2023/03/19 00:10:08;;;;;;;11.35;8.00;;;;;;;15.01;73.00;101108.63;5099132;28;20113;-79
2023/03/19 00:12:36;;;;;;;12.73;8.70;;;;;;;14.73;73.86;101121.78;5103743;28;20043;-78
2023/03/19 00:15:02;;;;;;;14.00;10.43;;;;;;;14.46;74.88;101123.50;5098000;28;20030;-78
2023/03/19 00:17:31;;;;;;;14.85;10.27;;;;;;;14.22;75.76;101121.66;5105099;28;20602;-79
2023/03/19 00:20:03;;;;;;;16.90;11.27;;;;;;;14.61;74.85;101125.28;5104376;27;20036;-77
2023/03/19 00:22:29;;;;;;;18.45;11.95;;;;;;;14.44;74.43;101124.38;5100919;27;20035;-80
2023/03/19 00:24:54;;;;;;;17.40;12.20;;;;;;;14.37;75.00;101119.97;5103478;27;20031;-78
2023/03/19 00:27:31;;;;;;;19.45;12.45;;;;;;;14.35;75.17;101126.94;5099234;28;20047;-79
2023/03/19 00:29:57;;;;;;;15.90;11.95;;;;;;;14.42;74.57;101126.13;5105079;28;20428;-79
2023/03/19 00:32:22;;;;;;;15.90;11.13;;;;;;;14.23;74.58;101123.41;5099978;27;20058;-79
2023/03/19 00:35:00;;;;;;;15.38;11.18;;;;;;;14.29;74.60;101125.19;5102891;27;20547;-79
2023/03/19 00:37:26;;;;;;;16.35;10.95;;;;;;;14.47;74.04;101132.25;5099752;27;20093;-80
2023/03/19 00:39:51;;;;;;;15.35;10.90;;;;;;;14.50;73.49;101132.25;5104485;28;20032;-78
2023/03/19 00:42:17;;;;;;;15.23;11.50;;;;;;;13.91;75.41;101138.16;5098609;28;20047;-79
2023/03/19 00:44:42;;;;;;;16.98;11.35;;;;;;;13.91;75.60;101142.53;5102879;28;20031;-81
2023/03/19 00:47:07;;;;;;;15.68;11.63;;;;;;;14.21;74.97;101135.66;5098739;28;20039;-77
2023/03/19 00:49:33;;;;;;;16.33;11.30;;;;;;;13.82;75.32;101139.03;5104623;27;20027;-78
2023/03/19 00:51:58;;;;;;;16.00;11.40;;;;;;;14.23;73.86;101135.66;5102147;28;20061;-78
2023/03/19 00:54:26;;;;;;;16.48;11.27;;;;;;;14.26;73.25;101132.19;5098685;28;20289;-79
2023/03/19 00:56:52;;;;;;;17.38;11.45;;;;;;;14.00;73.99;101132.97;5102627;28;20039;-78
2023/03/19 00:59:17;;;;;;;17.98;11.38;;;;;;;13.79;74.87;101145.97;5097151;28;20036;-79
2023/03/19 01:01:45;;;;;;;16.70;10.93;;;;;;;13.54;75.58;101136.28;5100444;28;20031;-79
2023/03/19 01:04:11;;;;;;;19.77;11.43;;;;;;;13.78;74.50;101137.22;5097175;27;20023;-80
2023/03/19 01:06:37;;;;;;;16.05;10.68;;;;;;;13.81;73.77;101142.50;5102216;27;20119;-79
2023/03/19 01:09:02;;;;;;;17.00;10.18;;;;;;;13.88;72.64;101145.16;5098488;28;20127;-78
2023/03/19 01:11:31;;;;;;;17.13;10.57;;;;;;;13.81;72.87;101144.25;5098361;27;20073;-79
2023/03/19 01:13:56;;;;;;;15.65;9.77;;;;;;;13.52;73.57;101138.88;5102029;28;20034;-80
2023/03/19 01:16:24;;;;;;;17.90;10.80;;;;;;;13.58;73.41;101145.88;5098061;28;20442;-81
2023/03/19 01:18:50;;;;;;;17.08;10.00;;;;;;;13.64;73.15;101145.91;5099969;28;20403;-79
2023/03/19 01:21:21;;;;;;;16.13;9.75;;;;;;;13.50;73.41;101148.44;5096782;28;20073;-80
2023/03/19 01:23:47;;;;;;;18.33;10.10;;;;;;;13.30;74.52;101150.94;5098646;28;20130;-81
2023/03/19 01:26:12;;;;;;;20.40;10.10;;;;;;;13.33;74.54;101152.72;5096283;28;20469;-79
2023/03/19 01:28:44;;;;;;;18.70;10.13;;;;;;;13.64;73.63;101152.03;5101072;28;20446;-79
2023/03/19 01:31:10;;;;;;;17.40;9.98;;;;;;;13.31;74.16;101159.69;5096706;28;20488;-79
2023/03/19 01:33:41;;;;;;;22.48;11.07;;;;;;;13.00;74.67;101156.81;5101093;28;20035;-78
2023/03/19 01:36:08;;;;;;;21.50;10.35;;;;;;;13.43;73.19;101148.41;5096835;28;20083;-79
2023/03/19 01:38:33;;;;;;;22.35;10.65;;;;;;;13.17;73.29;101148.25;5100254;28;20475;-78
2023/03/19 01:41:02;;;;;;;20.42;10.82;;;;;;;13.29;72.61;101146.59;5101348;28;20032;-78
2023/03/19 01:43:31;;;;;;;22.77;10.63;;;;;;;13.14;73.48;101142.97;5095794;28;20055;-79
2023/03/19 01:46:21;;;;;;;21.40;10.57;;;;;;;13.26;72.89;101150.91;5098281;28;20132;-78
2023/03/19 01:48:52;;;;;;;21.50;10.68;;;;;;;12.78;74.28;101148.75;5083288;28;20123;-78
2023/03/19 01:51:23;;;;;;;21.52;10.75;;;;;;;12.95;74.01;101158.50;5103807;22;20101;-43
2023/03/19 01:53:54;;;;;;;21.95;10.95;;;;;;;13.11;73.44;101159.53;5087967;28;20046;-43
2023/03/19 01:56:23;;;;;;;23.50;11.30;;;;;;;13.11;73.56;101156.03;5103851;28;20408;-41
2023/03/19 01:58:52;;;;;;;22.35;10.48;;;;;;;13.25;72.19;101152.66;5107255;28;20023;-44
2023/03/19 02:01:17;;;;;;;22.40;10.98;;;;;;;13.02;72.69;101147.22;5098620;28;20055;-42
2023/03/19 02:03:44;;;;;;;23.65;10.98;;;;;;;13.15;72.18;101158.72;5101379;28;20063;-43
2023/03/19 02:06:11;;;;;;;21.30;10.70;;;;;;;13.11;72.42;101156.03;5076664;22;20494;-79
2023/03/19 02:08:37;;;;;;;23.92;11.07;;;;;;;12.77;73.80;101154.84;5079363;28;20032;-80
2023/03/19 02:11:04;;;;;;;24.38;10.98;;;;;;;12.83;73.98;101157.53;5084144;27;20028;-79
2023/03/19 02:13:33;;;;;;;19.83;10.25;;;;;;;12.93;73.37;101159.34;5105262;28;25696;-80
2023/03/19 02:16:00;;;;;;;23.30;10.43;;;;;;;12.86;73.26;101157.56;5105199;27;20035;-80
2023/03/19 02:18:26;;;;;;;21.05;10.63;;;;;;;12.89;73.23;101152.34;5102364;28;20039;-78
2023/03/19 02:21:16;;;;;;;23.70;10.75;;;;;;;12.81;73.77;101151.41;5105979;28;20059;-80
2023/03/19 02:24:07;;;;;;;20.50;9.85;;;;;;;12.77;73.81;101157.47;5089952;27;20434;-81
2023/03/19 02:26:34;;;;;;;21.13;11.00;;;;;;;12.56;74.68;101153.78;5100299;27;20369;-77
2023/03/19 02:29:03;;;;;;;22.55;10.77;;;;;;;12.60;75.05;101150.34;5104043;28;20123;-78
2023/03/19 02:31:35;;;;;;;19.65;9.75;;;;;;;12.86;73.53;101157.56;5098308;28;20035;-80
2023/03/19 02:34:25;;;;;;;21.58;10.27;;;;;;;12.63;74.22;101161.69;5104545;27;20492;-79
2023/03/19 02:37:02;;;;;;;18.98;9.80;;;;;;;12.86;73.16;101147.09;5098639;28;20462;-79
2023/03/19 02:39:55;;;;;;;20.60;9.85;;;;;;;12.62;73.81;101155.63;5100081;27;20032;-79
2023/03/19 02:42:26;;;;;;;20.27;9.75;;;;;;;12.39;75.13;101160.59;5098239;27;22778;-78
2023/03/19 02:44:55;;;;;;;19.52;9.77;;;;;;;12.60;74.73;101167.78;5104335;27;20345;-77
2023/03/19 02:47:25;;;;;;;20.90;9.48;;;;;;;12.70;74.94;101158.28;5100311;27;20038;-77
2023/03/19 02:49:54;;;;;;;19.15;9.68;;;;;;;12.85;74.55;101166.28;5104225;27;20032;-79
2023/03/19 02:52:20;;;;;;;19.88;9.88;;;;;;;12.72;74.55;101165.28;5100092;27;20032;-80
2023/03/19 02:54:54;;;;;;;18.65;10.15;;;;;;;12.70;75.11;101163.50;5102914;28;20073;-78
2023/03/19 02:57:20;;;;;;;20.73;9.85;;;;;;;12.63;74.86;101161.69;5101180;27;20118;-78
2023/03/19 02:59:45;;;;;;;17.58;10.25;;;;;;;12.77;74.72;101160.09;5102797;28;20115;-79
2023/03/19 03:02:17;;;;;;;18.42;9.93;;;;;;;12.82;74.26;101167.13;5100386;28;20043;-80
2023/03/19 03:04:48;;;;;;;18.20;10.18;;;;;;;12.62;74.42;101173.03;5102701;27;20518;-79
2023/03/19 03:07:13;;;;;;;19.73;10.50;;;;;;;12.92;74.19;101171.59;5097789;27;20058;-79
2023/03/19 03:09:38;;;;;;;16.95;10.10;;;;;;;12.37;75.19;101170.19;5103528;27;20496;-78
2023/03/19 03:12:05;;;;;;;19.90;10.27;;;;;;;12.37;75.26;101166.69;5098619;27;20500;-77
2023/03/19 03:14:30;;;;;;;18.20;10.30;;;;;;;12.72;74.29;101165.28;5104714;27;20031;-79
2023/03/19 03:17:01;;;;;;;19.88;10.80;;;;;;;12.65;73.97;101160.84;5104093;27;20100;-79
2023/03/19 03:19:30;;;;;;;18.27;10.48;;;;;;;13.14;72.81;101161.31;5100540;28;20498;-79
2023/03/19 03:21:55;;;;;;;17.67;10.88;;;;;;;12.99;72.60;101167.28;5104286;27;20087;-80
2023/03/19 03:24:23;;;;;;;18.00;10.40;;;;;;;13.19;72.28;101165.72;5102239;27;23234;-79
2023/03/19 03:26:52;;;;;;;17.92;10.38;;;;;;;13.15;72.03;101156.09;5103502;28;20055;-80
2023/03/19 03:29:17;;;;;;;20.13;11.07;;;;;;;13.13;71.71;101162.16;5099308;27;20046;-79
2023/03/19 03:31:43;;;;;;;19.25;11.65;;;;;;;13.00;72.50;101158.53;5112400;28;20484;-80
2023/03/19 03:34:08;;;;;;;22.45;12.90;;;;;;;12.94;72.48;101164.59;5113114;22;20051;-44
2023/03/19 03:36:34;;;;;;;21.17;12.60;;;;;;;12.70;73.28;101156.53;5110708;27;20032;-43
2023/03/19 03:38:59;;;;;;;20.83;12.52;;;;;;;12.59;73.14;101163.41;5108019;27;20038;-42
2023/03/19 03:41:25;;;;;;;26.65;13.90;;;;;;;12.81;73.21;101156.63;5103121;27;20035;-41
2023/03/19 03:43:50;;;;;;;23.92;13.82;;;;;;;12.93;72.03;101156.72;5105321;27;20031;-42
2023/03/19 03:46:15;;;;;;;26.30;14.02;;;;;;;12.95;72.23;101160.25;5100671;27;20466;-41
2023/03/19 03:48:41;;;;;;;26.33;14.65;;;;;;;12.96;72.28;101162.00;5110626;22;20035;-81
2023/03/19 03:51:06;;;;;;;26.50;14.15;;;;;;;12.94;72.60;101166.34;5100249;28;20015;-79
2023/03/19 03:53:32;;;;;;;24.30;14.20;;;;;;;12.89;72.76;101163.69;5100450;28;20023;-80
2023/03/19 03:56:00;;;;;;;25.58;14.55;;;;;;;12.94;72.26;101163.72;5118377;28;20374;-81
2023/03/19 03:58:28;;;;;;;25.67;15.13;;;;;;;13.05;72.23;101169.94;5114568;28;20043;-80
2023/03/19 04:00:54;;;;;;;23.85;15.45;;;;;;;13.12;71.77;101163.00;5097016;28;20047;-79
2023/03/19 04:03:23;;;;;;;27.92;15.50;;;;;;;13.15;71.89;101166.56;5103084;28;20373;-79
2023/03/19 04:05:51;;;;;;;29.85;16.52;;;;;;;13.12;71.59;101173.47;5086700;28;20564;-79
2023/03/19 04:08:16;;;;;;;30.35;16.90;;;;;;;13.14;71.40;101167.41;5082459;28;20035;-79
2023/03/19 04:10:42;;;;;;;31.80;17.90;;;;;;;12.95;71.48;101187.28;5103533;28;20027;-80
2023/03/19 04:13:09;;;;;;;33.80;18.35;;;;;;;12.95;71.83;101189.91;5097729;28;20035;-80
2023/03/19 04:15:43;;;;;;;37.80;19.23;;;;;;;12.59;72.74;101195.69;5084713;28;20023;-79
2023/03/19 04:18:09;;;;;;;36.58;18.67;;;;;;;12.89;71.93;101189.84;5078679;28;20032;-78
2023/03/19 04:20:35;;;;;;;36.50;18.23;;;;;;;12.89;71.99;101182.00;5082877;28;20449;-79
2023/03/19 04:23:01;;;;;;;35.72;17.42;;;;;;;12.63;73.34;101186.09;5101660;28;20035;-78
2023/03/19 04:25:29;;;;;;;34.60;17.05;;;;;;;12.52;73.85;101180.78;5097699;28;20053;-78
2023/03/19 04:28:02;;;;;;;33.00;16.80;;;;;;;12.63;73.09;101187.84;5101552;28;20039;-77
2023/03/19 04:30:34;;;;;;;34.58;17.30;;;;;;;12.63;72.54;101186.09;5097891;28;20058;-79
2023/03/19 04:33:09;;;;;;;34.97;17.50;;;;;;;12.78;72.45;101188.00;5100869;28;20337;-79
2023/03/19 04:35:35;;;;;;;35.75;17.60;;;;;;;12.79;72.03;101200.22;5096021;28;20031;-78
2023/03/19 04:38:01;;;;;;;39.13;18.38;;;;;;;12.23;73.85;101205.72;5101555;28;20561;-77
2023/03/19 04:40:26;;;;;;;41.67;18.75;;;;;;;12.54;73.18;101202.59;5088088;28;20238;-80
2023/03/19 04:46:14;;;;;;;35.30;17.23;;;;;;;12.45;73.94;101214.69;5127791;22;20051;-40
2023/03/19 04:48:39;;;;;;;38.45;17.55;;;;;;;12.64;72.50;101214.03;5069069;28;20028;-41
2023/03/19 04:51:07;;;;;;;38.40;16.88;;;;;;;12.81;72.42;101214.19;5082942;28;20032;-43
2023/03/19 04:53:34;;;;;;;36.60;17.52;;;;;;;12.67;72.64;101215.81;5083865;28;20035;-37
2023/03/19 04:56:00;;;;;;;38.90;18.33;;;;;;;12.80;72.28;101225.53;5083705;28;20031;-39
2023/03/19 04:58:26;;;;;;;40.35;17.60;;;;;;;12.57;72.70;101225.28;5078917;28;20024;-40
2023/03/19 05:00:51;;;;;;;40.72;18.30;;;;;;;12.84;71.93;101225.56;5084600;22;20408;-43
2023/03/19 05:03:17;;;;;;;41.40;18.40;;;;;;;12.50;72.21;101220.88;5075711;28;20039;-41
2023/03/19 05:05:42;;;;;;;37.25;16.58;;;;;;;12.40;73.08;101229.44;5080534;28;20032;-43
2023/03/19 05:08:08;;;;;;;39.38;16.70;;;;;;;12.08;73.99;101229.03;5075653;28;20111;-41
2023/03/19 05:10:35;;;;;;;42.83;16.77;;;;;;;12.06;73.86;101233.41;5086697;27;20039;-39
2023/03/19 05:13:00;;;;;;;39.13;15.60;;;;;;;12.22;73.23;101231.84;5103606;28;20409;-43
2023/03/19 05:15:26;;;;;;;41.83;17.52;;;;;;;11.96;74.80;101231.50;5100742;28;20170;-42
2023/03/19 05:17:51;;;;;;;43.15;16.92;;;;;;;12.09;73.81;101239.53;5106892;28;20093;-41
2023/03/19 05:20:17;;;;;;;43.40;17.00;;;;;;;12.20;73.46;101245.75;5099057;28;20035;-43
2023/03/19 05:22:43;;;;;;;45.00;17.10;;;;;;;11.75;75.30;101248.66;5103131;28;20035;-43
2023/03/19 05:25:08;;;;;;;49.88;18.50;;;;;;;12.24;73.81;101251.06;5101559;28;20451;-42
2023/03/19 05:27:34;;;;;;;46.65;17.48;;;;;;;12.13;73.95;101253.53;5103371;28;20096;-40
2023/03/19 05:30:00;;;;;;;41.85;16.27;;;;;;;12.25;74.14;101258.03;5102594;28;20537;-43
2023/03/19 05:32:26;;;;;;;45.70;17.58;;;;;;;12.03;74.24;101255.13;5098072;28;20028;-45
2023/03/19 05:34:51;;;;;;;50.90;17.95;;;;;;;12.28;73.91;101251.09;5101774;28;20036;-41
2023/03/19 05:37:17;;;;;;;47.67;17.42;;;;;;;12.63;72.61;101256.72;5098265;28;20085;-42
2023/03/19 05:39:42;;;;;;;46.35;17.30;;;;;;;12.50;73.26;101253.09;5102159;28;20477;-42
2023/03/19 05:42:07;;;;;;;47.15;16.95;;;;;;;12.65;72.18;101264.59;5103534;28;20042;-41
2023/03/19 05:44:33;;;;;;;43.38;16.23;;;;;;;12.39;73.13;101261.69;5106544;28;20108;-41
2023/03/19 05:46:58;;;;;;;49.15;16.45;;;;;;;12.36;73.35;101269.50;5108956;28;20104;-44
2023/03/19 05:49:24;;;;;;;48.10;16.27;;;;;;;12.39;73.01;101269.53;5103902;27;20047;-40
2023/03/19 05:51:49;;;;;;;50.45;17.20;;;;;;;12.35;73.41;101270.34;5107811;27;20038;-43
2023/03/19 05:54:15;;;;;;;46.85;15.80;;;;;;;12.03;74.52;101276.03;5102215;27;20123;-41
2023/03/19 05:56:40;;;;;;;52.13;16.05;;;;;;;12.24;73.81;101274.56;5104946;28;20034;-42
2023/03/19 05:59:05;;;;;;;50.03;16.33;;;;;;;12.47;72.79;101276.63;5100579;28;20023;-41
2023/03/19 06:01:31;;;;;;;47.58;15.93;;;;;;;12.67;72.48;101273.34;5106834;28;20028;-45
2023/03/19 06:03:56;;;;;;;45.30;16.30;;;;;;;12.38;73.02;101273.03;5104275;28;20500;-42
2023/03/19 06:06:21;;;;;;;47.85;16.00;;;;;;;12.64;72.44;101271.56;5102378;27;20425;-41
2023/03/19 06:08:47;;;;;;;49.05;16.33;;;;;;;12.50;72.79;101268.78;5105560;28;20447;-41
2023/03/19 06:11:12;;;;;;;54.15;16.77;;;;;;;12.38;72.98;101273.03;5102435;27;20031;-41
2023/03/19 06:13:38;;;;;;;54.85;17.30;;;;;;;12.53;72.66;101266.22;5106647;27;20556;-41
2023/03/19 06:16:04;;;;;;;52.30;16.75;;;;;;;12.73;72.33;101276.03;5101544;27;20028;-43
2023/03/19 06:18:29;;;;;;;54.78;16.70;;;;;;;12.57;72.45;101280.19;5106234;27;20024;-40
2023/03/19 06:20:55;;;;;;;55.53;17.40;;;;;;;12.29;72.83;101276.38;5103506;28;20504;-42
2023/03/19 06:23:20;;;;;;;65.88;17.67;;;;;;;12.27;73.74;101285.06;5101967;27;20031;-40
2023/03/19 06:25:45;;;;;;;57.90;17.60;;;;;;;12.41;73.03;101291.34;5106388;27;20023;-44
2023/03/19 06:28:11;;;;;;;62.88;17.88;;;;;;;12.02;73.80;101299.53;5102950;28;20031;-42
2023/03/19 06:30:36;;;;;;;55.53;17.40;;;;;;;12.28;73.45;101292.03;5117743;27;20035;-45
2023/03/19 06:33:02;;;;;;;58.83;18.17;;;;;;;12.39;73.31;101298.28;5122169;27;20039;-41
2023/03/19 06:35:27;;;;;;;61.15;18.55;;;;;;;12.54;72.83;101301.09;5116074;27;20080;-44
2023/03/19 06:37:52;;;;;;;56.95;18.02;;;;;;;12.46;73.36;101306.22;5107137;27;20036;-43
2023/03/19 06:40:18;;;;;;;64.97;19.67;;;;;;;12.49;73.25;101303.69;5107318;27;20030;-41
2023/03/19 06:42:47;;;;;;;61.55;18.35;;;;;;;12.59;73.13;101310.75;5107061;28;20043;-42
2023/03/19 06:45:17;;;;;;;57.92;17.90;;;;;;;12.13;74.36;101314.53;5100108;28;20063;-41
2023/03/19 06:47:43;;;;;;;62.33;19.63;;;;;;;12.34;74.27;101319.16;5105679;27;20275;-41
2023/03/19 06:50:13;;;;;;;64.63;19.80;;;;;;;12.84;73.59;101329.34;5100911;27;20077;-41
2023/03/19 06:52:39;;;;;;;65.10;19.10;;;;;;;12.79;73.00;101326.69;5104821;27;20119;-43
2023/03/19 06:55:05;;;;;;;66.90;20.10;;;;;;;12.95;72.67;101327.72;5101431;27;20028;-42
2023/03/19 06:57:31;;;;;;;63.65;18.80;;;;;;;13.02;72.51;101326.94;5105296;27;20031;-40
2023/03/19 06:59:56;;;;;;;66.78;19.55;;;;;;;12.10;73.82;101329.28;5104668;27;20032;-41
2023/03/19 07:02:22;;;;;;;60.72;18.17;;;;;;;12.63;73.46;101329.09;5100576;27;20044;-41
2023/03/19 07:04:47;;;;;;;59.05;18.65;;;;;;;12.90;72.78;101332.03;5104548;28;20036;-44
2023/03/19 07:07:12;;;;;;;61.95;19.05;;;;;;;13.01;72.30;101331.31;5100828;27;20036;-41
2023/03/19 07:09:38;;;;;;;60.92;18.70;;;;;;;12.91;71.77;101331.19;5104020;27;20043;-42
2023/03/19 07:12:03;;;;;;;55.83;17.90;;;;;;;13.08;71.75;101332.25;5100613;28;20389;-42
2023/03/19 07:14:29;;;;;;;53.60;18.25;;;;;;;12.96;72.08;101333.00;5106353;27;20042;-42
2023/03/19 07:16:54;;;;;;;57.03;18.52;;;;;;;12.78;72.68;101342.38;5107825;27;20417;-42
2023/03/19 07:19:20;;;;;;;54.97;17.05;;;;;;;12.78;72.63;101350.22;5102616;27;20087;-40
2023/03/19 07:21:45;;;;;;;54.80;17.27;;;;;;;12.58;72.84;101350.84;5105424;27;20036;-43
2023/03/19 07:24:10;;;;;;;53.60;16.70;;;;;;;12.76;73.53;101351.94;5100218;27;20039;-42
2023/03/19 07:26:36;;;;;;;54.53;17.10;;;;;;;12.87;72.54;101358.16;5104448;27;20244;-41
2023/03/19 07:29:01;;;;;;;59.03;17.55;;;;;;;13.11;72.17;101361.09;5104191;27;20028;-41
2023/03/19 07:31:26;;;;;;;54.90;16.98;;;;;;;13.00;71.95;101366.19;5103340;27;20031;-46
2023/03/19 07:33:52;;;;;;;49.47;16.63;;;;;;;12.99;72.30;101366.19;5104953;27;20035;-43
2023/03/19 07:36:17;;;;;;;53.15;16.80;;;;;;;12.90;72.06;101369.56;5100448;27;20023;-40
2023/03/19 07:38:42;;;;;;;47.22;16.52;;;;;;;13.21;71.83;101370.81;5102132;28;20039;-42
2023/03/19 07:41:08;;;;;;;51.53;16.52;;;;;;;12.79;72.04;101370.31;5099750;27;20080;-43
2023/03/19 07:43:33;;;;;;;49.65;16.15;;;;;;;13.20;71.74;101362.94;5103412;28;20027;-42
2023/03/19 07:45:59;;;;;;;41.90;16.08;;;;;;;13.26;71.65;101369.13;5109445;28;20035;-44
2023/03/19 07:48:25;;;;;;;48.15;15.63;;;;;;;13.45;71.13;101371.91;5103127;27;20544;-41
2023/03/19 07:50:50;;;;;;;45.83;16.08;;;;;;;13.29;70.97;101377.03;5103503;27;20126;-41
2023/03/19 07:53:16;;;;;;;43.47;15.95;;;;;;;12.98;72.01;101381.00;5099316;27;20076;-41
2023/03/19 07:55:41;;;;;;;46.88;16.55;;;;;;;13.06;71.39;101386.31;5103389;27;20031;-42
2023/03/19 07:58:07;;;;;;;41.28;15.88;;;;;;;13.30;71.30;101380.50;5099491;27;20477;-41
2023/03/19 08:00:32;;;;;;;41.88;16.23;;;;;;;13.53;70.97;101383.34;5103606;27;20043;-45
2023/03/19 08:02:58;;;;;;;42.30;15.32;;;;;;;13.65;70.64;101384.34;5103235;28;20032;-41
2023/03/19 08:05:23;;;;;;;46.20;16.67;;;;;;;13.45;70.86;101382.41;5100109;28;20055;-43
2023/03/19 08:07:50;;;;;;;46.95;16.75;;;;;;;13.06;71.29;101388.94;5105048;27;20047;-45
2023/03/19 08:10:16;;;;;;;43.30;16.60;;;;;;;13.18;71.58;101394.34;5103343;27;20066;-43
2023/03/19 08:12:41;;;;;;;42.63;16.70;;;;;;;13.29;71.31;101394.47;5106410;27;20032;-41
2023/03/19 08:15:09;;;;;;;47.72;17.27;;;;;;;13.47;70.92;101402.50;5098569;27;20084;-41
2023/03/19 08:17:37;;;;;;;46.28;17.70;;;;;;;13.27;71.14;101409.28;5102841;27;20055;-42
2023/03/19 08:20:08;;;;;;;45.65;17.17;;;;;;;13.39;71.06;101407.66;5099317;27;20468;-41
2023/03/19 08:22:35;;;;;;;44.90;17.08;;;;;;;13.33;71.62;101409.34;5102578;27;20055;-44
2023/03/19 08:25:01;;;;;;;45.35;17.15;;;;;;;13.33;71.03;101411.97;5103464;27;20034;-42
2023/03/19 08:27:27;;;;;;;42.10;16.80;;;;;;;13.50;71.04;101410.38;5100885;27;20039;-44
2023/03/19 08:29:52;;;;;;;50.17;18.05;;;;;;;13.29;71.03;101413.69;5104140;27;20039;-43
2023/03/19 08:32:17;;;;;;;47.20;17.27;;;;;;;13.32;71.55;101420.69;5100145;27;20127;-40
2023/03/19 08:34:43;;;;;;;48.47;18.10;;;;;;;12.87;72.33;101416.63;5102760;27;20134;-42
2023/03/19 08:37:08;;;;;;;49.80;18.73;;;;;;;12.84;73.40;101429.69;5099261;28;20138;-43
2023/03/19 08:39:33;;;;;;;48.72;17.77;;;;;;;13.31;72.14;101432.88;5102263;28;20032;-42
2023/03/19 08:41:59;;;;;;;51.00;17.80;;;;;;;13.27;71.34;101436.34;5101183;28;20084;-41
2023/03/19 08:44:24;;;;;;;44.80;17.42;;;;;;;13.69;70.92;101435.03;5098644;27;20067;-42
2023/03/19 08:46:50;;;;;;;47.63;18.27;;;;;;;13.57;70.72;101440.16;5102973;27;20034;-46
2023/03/19 08:49:15;;;;;;;48.60;17.83;;;;;;;13.51;70.83;101440.09;5098707;28;20473;-41
2023/03/19 08:51:41;;;;;;;48.92;18.70;;;;;;;13.63;70.46;101440.22;5102365;27;20546;-40
2023/03/19 08:54:06;;;;;;;47.25;18.60;;;;;;;13.81;70.64;101437.75;5098781;27;20028;-40
2023/03/19 08:56:31;;;;;;;50.22;19.00;;;;;;;13.89;70.42;101443.97;5103473;28;20443;-43
2023/03/19 08:58:57;;;;;;;57.00;19.88;;;;;;;13.20;71.94;101439.75;5106393;28;20027;-40
2023/03/19 09:01:23;;;;;;;59.60;19.85;;;;;;;13.39;72.13;101454.81;5102427;28;20043;-43
2023/03/19 09:03:48;;;;;;;57.50;20.75;;;;;;;13.63;71.39;101451.56;5102891;28;20401;-42
2023/03/19 09:06:14;;;;;;;60.63;20.55;;;;;;;13.61;71.34;101458.53;5098342;28;20075;-44
2023/03/19 09:08:40;;;;;;;57.78;19.08;;;;;;;13.45;71.96;101451.38;5104523;28;20097;-42
2023/03/19 09:11:05;;;;;;;57.85;19.25;;;;;;;13.31;72.88;101453.84;5100943;28;20092;-41
2023/03/19 09:13:32;;;;;;;50.17;17.20;;;;;;;13.64;70.91;101455.94;5106762;28;20053;-42
2023/03/19 09:15:57;;;;;;;50.47;16.90;;;;;;;13.27;71.40;101459.91;5107039;28;20508;-41
2023/03/19 09:18:24;;;;;;;47.05;16.77;;;;;;;13.24;72.79;101459.84;5102334;28;20075;-43
2023/03/19 09:20:50;;;;;;;45.63;16.30;;;;;;;13.20;72.54;101455.47;5106842;27;20097;-41
2023/03/19 09:23:15;;;;;;;41.15;15.23;;;;;;;13.65;71.46;101468.19;5099585;28;20489;-42
2023/03/19 09:25:40;;;;;;;41.92;15.75;;;;;;;13.63;70.40;101462.06;5084285;28;20560;-43
2023/03/19 09:28:06;;;;;;;48.67;15.57;;;;;;;13.22;72.13;101461.59;5102504;28;20031;-41
2023/03/19 09:30:31;;;;;;;43.58;15.52;;;;;;;13.47;71.96;101473.25;5106932;28;20047;-40
2023/03/19 09:32:57;;;;;;;45.67;15.57;;;;;;;13.38;72.56;101470.50;5107044;28;20031;-41
2023/03/19 09:35:22;;;;;;;42.70;15.88;;;;;;;13.90;70.61;101477.19;5102122;28;20513;-41
2023/03/19 09:37:48;;;;;;;43.85;16.35;;;;;;;13.85;69.42;101478.84;5102550;28;20081;-41
2023/03/19 09:40:24;;;;;;;40.65;15.75;;;;;;;13.69;70.21;101485.69;5104703;28;20057;-43
2023/03/19 09:42:58;;;;;;;48.35;17.08;;;;;;;13.79;70.70;101494.50;5107929;28;20043;-39
2023/03/19 09:45:26;;;;;;;48.33;16.77;;;;;;;13.65;70.80;101496.13;5103157;28;20440;-43
2023/03/19 09:47:57;;;;;;;50.35;17.42;;;;;;;13.33;71.46;101490.53;5105805;28;20066;-44
2023/03/19 09:50:24;;;;;;;49.25;17.27;;;;;;;13.97;69.91;101499.06;5102656;28;20078;-43
2023/03/19 09:53:19;;;;;;;45.22;17.35;;;;;;;13.78;69.93;101500.66;5104318;28;20097;-43
2023/03/19 09:55:52;;;;;;;43.38;17.17;;;;;;;13.72;69.97;101505.81;5093876;28;20096;-43
2023/03/19 09:58:21;;;;;;;45.60;17.38;;;;;;;13.92;70.11;101503.38;5097330;28;20028;-42
2023/03/19 10:00:50;;;;;;;45.13;17.20;;;;;;;13.60;70.53;101509.16;5101397;28;20032;-46
2023/03/19 10:03:27;;;;;;;43.60;17.80;;;;;;;13.40;71.18;101515.94;5100875;28;20120;-42
2023/03/19 10:05:58;;;;;;;45.17;17.95;;;;;;;13.84;70.56;101513.81;5098976;28;20119;-42
2023/03/19 10:09:02;;;;;;;45.40;18.88;;;;;;;13.83;70.20;101514.66;5098378;28;20042;-42
2023/03/19 10:11:36;;;;;;;46.40;18.58;;;;;;;13.86;69.85;101521.66;5098148;28;20489;-41
2023/03/19 10:14:56;;;;;;;47.50;19.08;;;;;;;13.76;70.53;101521.59;5098912;28;20119;-41
2023/03/19 10:17:29;;;;;;;43.75;18.58;;;;;;;14.13;69.56;101517.59;5035237;28;20087;-41
2023/03/19 10:20:00;;;;;;;36.20;16.45;;;;;;;13.85;69.27;101526.03;5101801;28;20071;-42
2023/03/19 10:22:34;;;;;;;44.80;17.80;;;;;;;14.51;68.42;101538.94;5100416;28;20032;-42
2023/03/19 10:25:01;;;;;;;33.55;15.77;;;;;;;14.74;67.84;101535.59;5105759;28;20036;-40
2023/03/19 10:27:28;;;;;;;34.38;14.93;;;;;;;14.88;67.23;101533.94;5100284;28;20052;-41
2023/03/19 10:29:54;;;;;;;32.30;15.35;;;;;;;14.69;66.31;101532.94;5107068;28;20052;-42
2023/03/19 10:32:40;;;;;;;36.28;15.60;;;;;;;14.93;66.29;101538.34;5106091;28;20024;-41
2023/03/19 10:35:18;;;;;;;34.33;15.65;;;;;;;15.02;66.17;101533.13;5106767;27;20032;-41
2023/03/19 10:37:43;;;;;;;40.00;17.27;;;;;;;15.11;65.70;101534.06;5110472;27;20042;-41
2023/03/19 10:40:36;;;;;;;38.67;17.70;;;;;;;14.92;65.78;101531.34;5105914;27;20024;-41
2023/03/19 10:43:15;;;;;;;37.20;17.17;;;;;;;15.24;65.46;101531.53;5109200;27;20396;-42
2023/03/19 10:45:41;;;;;;;37.22;18.02;;;;;;;15.00;65.38;101534.03;5105392;27;20055;-42
2023/03/19 10:48:12;;;;;;;37.53;18.55;;;;;;;14.89;65.70;101539.19;5104180;28;20035;-42
2023/03/19 10:50:48;;;;;;;36.83;17.85;;;;;;;14.91;66.00;101544.44;5109474;27;20040;-41
2023/03/19 10:53:13;;;;;;;36.47;16.85;;;;;;;15.11;65.78;101541.94;5104964;27;20031;-43
2023/03/19 10:55:46;;;;;;;42.10;17.77;;;;;;;14.98;64.91;101544.50;5110582;28;20063;-45
2023/03/19 10:58:19;;;;;;;36.80;18.07;;;;;;;14.85;65.89;101544.41;5107112;28;20031;-44
2023/03/19 11:00:46;;;;;;;40.15;18.27;;;;;;;15.25;65.39;101542.88;5117851;22;20365;-48
2023/03/19 11:03:32;;;;;;;37.17;17.42;;;;;;;15.07;65.64;101538.41;5074635;28;20037;-46
2023/03/19 11:06:16;;;;;;;38.58;17.55;;;;;;;15.28;65.35;101540.28;5065894;28;20472;-45
2023/03/19 11:08:41;;;;;;;35.97;17.65;;;;;;;15.37;65.34;101543.81;5061424;28;20048;-42
2023/03/19 11:11:22;;;;;;;39.33;17.83;;;;;;;15.54;65.14;101545.69;5064606;28;20521;-45
2023/03/19 11:13:48;;;;;;;37.50;16.70;;;;;;;15.50;65.05;101551.75;5085373;28;20127;-44
2023/03/19 11:16:13;;;;;;;34.80;16.83;;;;;;;15.51;64.33;101551.75;5085917;28;20607;-46